Time;durP1;ratioP1;P1;durP2;ratioP2;P2;SDS_P1;SDS_P2;PMS_P1;PMS_P2;Temp;Humidity;BMP_temperature;BMP_pressure;BME280_temperature;BME280_humidity;BME280_pressure;Samples;Min_cycle;Max_cycle;Signal;HPM_P1;HPM_P2
2023/06/01 00:00:00;;;;;;;;;;;;;;;12.48;37.84;101036.98;105425;1299;59410;-85
2023/06/01 00:02:46;;;;;;;;;;;;;;;12.44;37.97;101037.94;105454;1298;74546;-84
2023/06/01 00:05:31;;;;;;;;;;;;;;;12.40;38.10;101036.09;105427;1300;67369;-84
2023/06/01 00:08:17;;;;;;;;;;;;;;;12.38;38.20;101034.06;105608;1297;71873;-84
2023/06/01 00:11:03;;;;;;;;;;;;;;;12.34;38.28;101037.41;105333;1299;204901;-84
2023/06/01 00:13:49;;;;;;;;;;;;;;;12.32;38.37;101033.46;105603;1298;59611;-84
2023/06/01 00:16:36;;;;;;;;;;;;;;;12.35;38.41;101032.55;105587;1297;74219;-84
2023/06/01 00:19:22;;;;;;;;;;;;;;;12.34;38.36;101025.84;105537;1302;67692;-84
2023/06/01 00:22:08;;;;;;;;;;;;;;;12.23;38.46;101026.70;105540;1298;71688;-84
2023/06/01 00:24:54;;;;;;;;;;;;;;;12.23;38.58;101026.85;105530;1300;58931;-84
2023/06/01 00:27:40;;;;;;;;;;;;;;;12.25;38.60;101029.43;105415;1302;59973;-84
2023/06/01 00:30:26;;;;;;;;;;;;;;;12.20;38.65;101025.52;105479;1301;73416;-84
2023/06/01 00:33:12;;;;;;;;;;;;;;;12.15;38.74;101027.34;105393;1300;68196;-83
2023/06/01 00:35:58;;;;;;;;;;;;;;;12.15;38.82;101027.69;105478;1300;73597;-84
2023/06/01 00:38:44;;;;;;;;;;;;;;;12.13;38.95;101028.74;105460;1304;59312;-84
2023/06/01 00:41:31;;;;;;;;;;;;;;;12.11;38.95;101028.61;105531;1298;59936;-84
2023/06/01 00:44:16;;;;;;;;;;;;;;;12.09;39.02;101028.11;105381;1297;73960;-84
2023/06/01 00:47:03;;;;;;;;;;;;;;;12.06;39.11;101025.58;105524;1297;68381;-84
2023/06/01 00:49:49;;;;;;;;;;;;;;;12.02;39.14;101025.12;105563;1297;71310;-84
2023/06/01 00:52:36;;;;;;;;;;;;;;;12.00;39.38;101024.11;105518;1297;59291;-84
2023/06/01 00:55:23;;;;;;;;;;;;;;;12.00;39.48;101025.66;105398;1300;59129;-84
2023/06/01 00:58:09;;;;;;;;;;;;;;;11.98;39.52;101022.59;105495;1296;73403;-84
2023/06/01 01:00:55;;;;;;;;;;;;;;;11.96;39.58;101022.81;105428;1297;68448;-84
2023/06/01 01:03:44;;;;;;;;;;;;;;;11.95;39.71;101019.57;105444;1298;71278;-84
2023/06/01 01:06:56;;;;;;;;;;;;;;;11.96;39.76;101019.20;105604;1298;58989;-84
2023/06/01 01:09:48;;;;;;;;;;;;;;;11.94;39.83;101021.31;105539;1297;59749;-84
2023/06/01 01:12:47;;;;;;;;;;;;;;;11.91;39.93;101023.92;105534;1297;74462;-84
2023/06/01 01:15:41;;;;;;;;;;;;;;;11.91;39.96;101018.24;105593;1297;68329;-85
2023/06/01 01:18:33;;;;;;;;;;;;;;;11.87;39.89;101016.91;105519;1299;71195;-85
2023/06/01 01:21:27;;;;;;;;;;;;;;;11.85;40.05;101017.28;105570;1297;59143;-84
2023/06/01 01:24:23;;;;;;;;;;;;;;;11.83;40.16;101011.63;105416;1300;59748;-85
2023/06/01 01:27:29;;;;;;;;;;;;;;;11.79;40.23;101008.74;105505;1298;75581;-84
2023/06/01 01:30:17;;;;;;;;;;;;;;;11.79;40.36;101008.58;105500;1297;67732;-84
2023/06/01 01:33:03;;;;;;;;;;;;;;;11.78;40.23;101008.75;105519;1297;71347;-85
2023/06/01 01:35:50;;;;;;;;;;;;;;;11.74;40.36;101008.44;105406;1299;59102;-84
2023/06/01 01:38:36;;;;;;;;;;;;;;;11.70;40.46;101006.08;105505;1298;59983;-86
2023/06/01 01:41:22;;;;;;;;;;;;;;;11.66;40.58;101007.35;105538;1297;74630;-85
2023/06/01 01:44:08;;;;;;;;;;;;;;;11.63;40.78;101003.41;105602;1296;67633;-84
2023/06/01 01:47:01;;;;;;;;;;;;;;;11.60;40.67;101003.09;105593;1297;72793;-85
2023/06/01 01:49:49;;;;;;;;;;;;;;;11.61;40.72;101006.54;105575;1296;59153;-84
2023/06/01 01:52:38;;;;;;;;;;;;;;;11.61;40.86;101005.33;105403;1297;59283;-84
2023/06/01 01:55:24;;;;;;;;;;;;;;;11.61;40.97;101003.61;105420;1299;74815;-84
2023/06/01 01:58:10;;;;;;;;;;;;;;;11.58;40.97;100999.67;105492;1297;67539;-85
2023/06/01 02:00:57;;;;;;;;;;;;;;;11.54;41.10;100999.91;105492;1299;71700;-84
2023/06/01 02:03:43;;;;;;;;;;;;;;;11.48;41.12;100991.36;105442;1298;59280;-85
2023/06/01 02:06:29;;;;;;;;;;;;;;;11.50;41.28;100989.09;105536;1297;59957;-85
2023/06/01 02:09:15;;;;;;;;;;;;;;;11.50;41.18;100992.02;105520;1297;74452;-85
2023/06/01 02:12:01;;;;;;;;;;;;;;;11.44;41.30;100986.24;105534;1297;67471;-85
2023/06/01 02:14:47;;;;;;;;;;;;;;;11.38;41.33;100993.07;105534;1297;73667;-84
2023/06/01 02:17:34;;;;;;;;;;;;;;;11.31;41.45;100993.00;105434;1297;59516;-85
2023/06/01 02:20:20;;;;;;;;;;;;;;;11.24;41.55;100991.69;105352;1297;60022;-85
2023/06/01 02:23:06;;;;;;;;;;;;;;;11.23;41.52;100990.16;105546;1297;74546;-85
2023/06/01 02:25:52;;;;;;;;;;;;;;;11.21;41.63;100991.55;105484;1297;68245;-84
2023/06/01 02:28:40;;;;;;;;;;;;;;;11.19;41.53;100992.45;105467;1298;71158;-84
2023/06/01 02:31:26;;;;;;;;;;;;;;;11.16;41.64;100992.66;105442;1296;59150;-84
2023/06/01 02:34:12;;;;;;;;;;;;;;;11.12;41.77;100989.08;105507;1297;60346;-84
2023/06/01 02:36:59;;;;;;;;;;;;;;;11.10;41.75;100988.41;105548;1297;74444;-84
2023/06/01 02:39:45;;;;;;;;;;;;;;;11.13;41.76;100988.04;105448;1299;68557;-84
2023/06/01 02:42:31;;;;;;;;;;;;;;;11.09;41.69;100987.90;105406;1297;72031;-85
2023/06/01 02:45:17;;;;;;;;;;;;;;;11.09;41.94;100983.60;105470;1297;59163;-85
2023/06/01 02:48:03;;;;;;;;;;;;;;;11.11;41.94;100987.02;105508;1298;59390;-84
2023/06/01 02:50:49;;;;;;;;;;;;;;;11.11;42.08;100985.13;105534;1299;74548;-85
2023/06/01 02:53:35;;;;;;;;;;;;;;;11.13;42.15;100988.21;105581;1297;68262;-86
2023/06/01 02:56:21;;;;;;;;;;;;;;;11.11;42.18;100983.92;105454;1297;72941;-85
2023/06/01 02:59:07;;;;;;;;;;;;;;;11.08;42.20;100984.13;105455;1297;59071;-85
2023/06/01 03:01:53;;;;;;;;;;;;;;;11.09;42.37;100980.84;105501;1298;59810;-85
2023/06/01 03:04:39;;;;;;;;;;;;;;;11.09;42.40;100971.35;105445;1297;74626;-85
2023/06/01 03:07:25;;;;;;;;;;;;;;;11.09;42.53;100971.17;105429;1297;67642;-85
2023/06/01 03:10:12;;;;;;;;;;;;;;;11.11;42.61;100971.33;105482;1298;72910;-84
2023/06/01 03:12:58;;;;;;;;;;;;;;;11.10;42.73;100973.06;105505;1297;59222;-86
2023/06/01 03:15:44;;;;;;;;;;;;;;;11.06;42.72;100971.73;105517;1297;58686;-84
2023/06/01 03:18:30;;;;;;;;;;;;;;;11.03;42.92;100975.05;105519;1297;74863;-84
2023/06/01 03:21:16;;;;;;;;;;;;;;;11.07;43.01;100973.27;105485;1297;69670;-84
2023/06/01 03:24:02;;;;;;;;;;;;;;;11.11;43.02;100974.94;105596;1297;72133;-84
2023/06/01 03:26:48;;;;;;;;;;;;;;;11.18;43.05;100971.93;105430;1297;59109;-84
2023/06/01 03:29:34;;;;;;;;;;;;;;;11.28;43.12;100975.94;105463;1297;60908;-85
2023/06/01 03:32:20;;;;;;;;;;;;;;;11.36;43.17;100976.01;105460;1297;73436;-86
2023/06/01 03:35:07;;;;;;;;;;;;;;;11.38;43.28;100982.21;105511;1300;68422;-85
2023/06/01 03:37:53;;;;;;;;;;;;;;;11.37;43.44;100982.04;105565;1297;72659;-86
2023/06/01 03:40:39;;;;;;;;;;;;;;;11.37;43.46;100980.65;105631;1297;59157;-86
2023/06/01 03:43:25;;;;;;;;;;;;;;;11.41;43.48;100972.48;105609;1297;59524;-86
2023/06/01 03:46:11;;;;;;;;;;;;;;;11.46;43.40;100967.55;105593;1297;73293;-86
2023/06/01 03:48:57;;;;;;;;;;;;;;;11.49;43.59;100968.03;105520;1297;68135;-85
2023/06/01 03:51:43;;;;;;;;;;;;;;;11.53;43.58;100962.97;105564;1297;72605;-86
2023/06/01 03:54:28;;;;;;;;;;;;;;;11.57;43.63;100961.53;105476;1297;59156;-86
2023/06/01 03:57:15;;;;;;;;;;;;;;;11.62;43.73;100957.66;105525;1297;60273;-86
2023/06/01 04:00:03;;;;;;;;;;;;;;;11.69;43.92;100951.69;105499;1297;74371;-86
2023/06/01 04:02:52;;;;;;;;;;;;;;;11.76;43.91;100948.14;105501;1297;68926;-86
2023/06/01 04:05:38;;;;;;;;;;;;;;;11.86;43.98;100945.58;105518;1297;72538;-86
2023/06/01 04:08:24;;;;;;;;;;;;;;;12.04;44.17;100941.30;105493;1297;58924;-86
2023/06/01 04:11:10;;;;;;;;;;;;;;;12.24;44.14;100944.75;105376;1299;59078;-86
2023/06/01 04:13:56;;;;;;;;;;;;;;;12.36;44.31;100946.09;105576;1297;73238;-86
2023/06/01 04:16:42;;;;;;;;;;;;;;;12.46;44.21;100944.85;105603;1297;68560;-86
2023/06/01 04:19:28;;;;;;;;;;;;;;;12.53;44.35;100945.23;105423;1297;71536;-86
2023/06/01 04:22:12;;;;;;;;;;;;;;;12.60;44.34;100942.85;105466;1297;59329;-86
2023/06/01 04:24:56;;;;;;;;;;;;;;;12.69;44.42;100936.64;105421;1298;59146;-86
2023/06/01 04:27:44;;;;;;;;;;;;;;;12.72;44.47;100934.13;105449;1299;73403;-86
2023/06/01 04:30:28;;;;;;;;;;;;;;;12.81;44.55;100931.02;105498;1297;67428;-85
2023/06/01 04:33:12;;;;;;;;;;;;;;;12.92;44.72;100928.89;105463;1297;71332;-86
2023/06/01 04:35:56;;;;;;;;;;;;;;;13.04;44.85;100931.56;105469;1297;59050;-86
2023/06/01 04:38:41;;;;;;;;;;;;;;;13.14;44.79;100930.16;105336;1297;59411;-86
2023/06/01 04:41:25;;;;;;;;;;;;;;;13.27;44.81;100927.48;105405;1297;73310;-86
2023/06/01 04:44:12;;;;;;;;;;;;;;;13.40;44.78;100923.72;105400;1299;67226;-86
2023/06/01 04:46:57;;;;;;;;;;;;;;;13.54;44.78;100927.01;105431;1297;70259;-87
2023/06/01 04:49:41;;;;;;;;;;;;;;;13.68;44.82;100929.11;105291;1299;58823;-87
2023/06/01 04:52:26;;;;;;;;;;;;;;;13.84;44.79;100931.98;105453;1300;59739;-87
2023/06/01 04:55:12;;;;;;;;;;;;;;;14.03;44.92;100936.05;105408;1299;73558;-86
2023/06/01 04:57:57;;;;;;;;;;;;;;;14.22;44.72;100932.77;105425;1300;67978;-87
2023/06/01 05:00:42;;;;;;;;;;;;;;;14.44;44.96;100933.58;105502;1297;71172;-86
2023/06/01 05:03:26;;;;;;;;;;;;;;;14.73;44.90;100928.95;105510;1297;59260;-87
2023/06/01 05:06:13;;;;;;;;;;;;;;;15.13;44.96;100922.40;105505;1297;60216;-87
2023/06/01 05:08:58;;;;;;;;;;;;;;;15.74;45.29;100922.93;105417;1297;73692;-87
2023/06/01 05:11:42;;;;;;;;;;;;;;;16.42;44.65;100923.38;105431;1297;68732;-87
2023/06/01 05:14:28;;;;;;;;;;;;;;;17.14;44.57;100923.17;105544;1297;71076;-87
2023/06/01 05:17:13;;;;;;;;;;;;;;;17.87;44.37;100913.44;105384;1300;59407;-87
2023/06/01 05:19:59;;;;;;;;;;;;;;;18.61;44.15;100911.27;105467;1297;59447;-87
2023/06/01 05:22:46;;;;;;;;;;;;;;;19.31;43.96;100912.58;105477;1300;73447;-88
2023/06/01 05:25:32;;;;;;;;;;;;;;;19.99;43.64;100911.33;105469;1298;68718;-87
2023/06/01 05:28:20;;;;;;;;;;;;;;;20.64;43.41;100908.52;105502;1297;73083;-87
2023/06/01 05:31:06;;;;;;;;;;;;;;;21.25;43.32;100908.65;105444;1297;59412;-88
2023/06/01 05:33:52;;;;;;;;;;;;;;;21.81;43.27;100907.41;105441;1297;59953;-88
2023/06/01 05:36:38;;;;;;;;;;;;;;;22.26;43.09;100901.74;105474;1297;74438;-88
2023/06/01 05:39:27;;;;;;;;;;;;;;;22.57;42.88;100900.70;105466;1299;67375;-88
2023/06/01 05:42:13;;;;;;;;;;;;;;;22.89;42.46;100900.66;105512;1297;71484;-88
2023/06/01 05:44:59;;;;;;;;;;;;;;;23.15;42.47;100905.86;105376;1297;59085;-88
2023/06/01 05:47:45;;;;;;;;;;;;;;;23.50;42.32;100903.80;105492;1297;59818;-88
2023/06/01 05:50:31;;;;;;;;;;;;;;;23.90;42.29;100904.63;105383;1297;74030;-88
2023/06/01 05:53:15;;;;;;;;;;;;;;;24.36;42.20;100902.36;105430;1296;67264;-88
2023/06/01 05:55:59;;;;;;;;;;;;;;;24.75;41.90;100900.89;105376;1299;70309;-88
2023/06/01 05:58:43;;;;;;;;;;;;;;;25.06;41.80;100900.95;105305;1297;59683;-88
2023/06/01 06:01:27;;;;;;;;;;;;;;;25.44;41.69;100899.96;105362;1300;59379;-88
2023/06/01 06:04:12;;;;;;;;;;;;;;;25.71;41.30;100901.86;98593;1297;5003350;-88
2023/06/01 06:06:56;;;;;;;;;;;;;;;25.87;41.20;100900.84;105349;1299;68061;-88
2023/06/01 06:09:40;;;;;;;;;;;;;;;26.04;41.15;100895.42;105435;1297;72713;-88
2023/06/01 06:12:24;;;;;;;;;;;;;;;26.30;41.01;100894.46;105307;1298;59200;-88
2023/06/01 06:15:08;;;;;;;;;;;;;;;26.55;40.87;100894.63;105476;1297;59405;-88
2023/06/01 06:17:53;;;;;;;;;;;;;;;26.79;40.58;100894.70;105394;1297;74290;-88
2023/06/01 06:20:36;;;;;;;;;;;;;;;27.16;40.39;100894.58;105315;1298;68655;-88
2023/06/01 06:23:21;;;;;;;;;;;;;;;27.50;40.04;100888.70;105477;1297;72281;-88
2023/06/01 06:26:06;;;;;;;;;;;;;;;27.91;39.88;100888.44;105443;1297;59285;-88
2023/06/01 06:28:50;;;;;;;;;;;;;;;28.41;39.60;100888.41;105345;1297;59558;-88
2023/06/01 06:31:34;;;;;;;;;;;;;;;28.97;39.51;100885.42;105380;1301;73219;-88
2023/06/01 06:34:18;;;;;;;;;;;;;;;29.55;39.29;100885.00;105426;1297;67480;-88
2023/06/01 06:37:03;;;;;;;;;;;;;;;30.02;38.96;100884.52;105349;1298;71227;-88
2023/06/01 06:39:47;;;;;;;;;;;;;;;30.29;38.70;100875.97;105288;1297;59305;-87
2023/06/01 06:42:31;;;;;;;;;;;;;;;30.73;38.57;100880.77;105283;1297;59315;-88
2023/06/01 06:45:14;;;;;;;;;;;;;;;31.33;38.50;100878.42;105180;1299;276451;-88
2023/06/01 06:47:58;;;;;;;;;;;;;;;31.49;38.59;100878.41;105437;1297;68532;-88
2023/06/01 06:50:44;;;;;;;;;;;;;;;31.42;38.50;100873.63;105465;1297;70736;-88
2023/06/01 06:53:27;;;;;;;;;;;;;;;31.34;38.03;100871.25;105322;1297;59254;-88
2023/06/01 06:56:11;;;;;;;;;;;;;;;31.69;37.64;100869.84;105457;1297;59722;-88
2023/06/01 06:58:55;;;;;;;;;;;;;;;32.25;36.98;100871.73;105237;1296;74004;-88
2023/06/01 07:01:40;;;;;;;;;;;;;;;32.90;36.35;100869.71;105426;1297;67195;-88
2023/06/01 07:04:24;;;;;;;;;;;;;;;33.64;36.15;100872.45;105306;1297;72269;-88
2023/06/01 07:07:08;;;;;;;;;;;;;;;34.40;35.86;100863.98;105279;1297;59108;-88
2023/06/01 07:09:53;;;;;;;;;;;;;;;34.96;35.35;100862.34;105409;1298;60489;-88
2023/06/01 07:12:37;;;;;;;;;;;;;;;35.68;35.19;100861.45;105369;1297;74919;-88
2023/06/01 07:15:21;;;;;;;;;;;;;;;36.11;34.66;100861.03;105440;1297;67344;-88
2023/06/01 07:18:07;;;;;;;;;;;;;;;36.15;34.29;100858.94;105352;1297;72883;-88
2023/06/01 07:20:53;;;;;;;;;;;;;;;35.87;34.73;100856.15;105387;1299;59288;-88
2023/06/01 07:23:41;;;;;;;;;;;;;;;35.79;34.67;100851.27;105492;1296;59082;-88
2023/06/01 07:26:28;;;;;;;;;;;;;;;35.28;34.39;100847.81;105368;1299;75498;-88
2023/06/01 07:29:14;;;;;;;;;;;;;;;34.74;34.53;100841.75;105373;1297;67146;-88
2023/06/01 07:32:04;;;;;;;;;;;;;;;35.26;33.97;100845.93;105417;1299;71387;-88
2023/06/01 07:35:01;;;;;;;;;;;;;;;34.90;33.14;100843.53;105322;1297;59005;-88
2023/06/01 07:37:50;;;;;;;;;;;;;;;34.13;33.42;100841.21;105519;1296;59316;-88
2023/06/01 07:40:44;;;;;;;;;;;;;;;33.58;33.46;100843.25;105387;1297;72762;-88
2023/06/01 07:43:30;;;;;;;;;;;;;;;34.83;33.21;100841.02;105487;1297;68385;-88
2023/06/01 07:46:25;;;;;;;;;;;;;;;36.56;32.05;100840.63;105304;1297;71502;-88
2023/06/01 07:49:13;;;;;;;;;;;;;;;38.11;31.33;100837.73;105540;1297;58827;-88
2023/06/01 07:51:59;;;;;;;;;;;;;;;39.35;30.91;100836.52;105493;1296;59362;-88
2023/06/01 07:54:52;;;;;;;;;;;;;;;40.46;30.68;100839.32;105481;1297;73464;-89
2023/06/01 07:57:47;;;;;;;;;;;;;;;41.20;30.52;100842.85;105514;1297;67457;-88
2023/06/01 08:03:59;;;;;;;;;;;;;;;;;;;;;
2023/06/01 08:07:13;;;;;;;;;;;;;;;;;;;;;
2023/06/01 08:10:42;;;;;;;;;;;;;;;;;;;;;
2023/06/01 08:14:07;;;;;;;;;;;;;;;44.47;28.74;100833.54;105343;1297;68444;-87
2023/06/01 08:17:25;;;;;;;;;;;;;;;45.29;27.92;100835.36;104636;1309;71280;-87
2023/06/01 08:20:26;;;;;;;;;;;;;;;;;;;;;
2023/06/01 08:23:27;;;;;;;;;;;;;;;;;;;;;
2023/06/01 08:26:20;;;;;;;;;;;;;;;45.26;26.43;100821.45;104011;1312;73691;-87
2023/06/01 08:29:31;;;;;;;;;;;;;;;45.50;26.46;100827.89;104159;1306;69284;-87
2023/06/01 08:36:14;;;;;;;;;;;;;;;;;;;;;
2023/06/01 08:49:57;;;;;;;;;;;;;;;;;;;;;
2023/06/01 08:56:08;;;;;;;;;;;;;;;43.21;21.36;100819.45;104698;1306;59758;-87
2023/06/01 09:05:18;;;;;;;;;;;;;;;34.29;23.10;100804.52;104693;1306;71996;-86
2023/06/01 09:08:04;;;;;;;;;;;;;;;32.68;23.29;100806.64;104691;1306;59835;-86
2023/06/01 09:10:50;;;;;;;;;;;;;;;31.16;23.55;100803.20;104686;1306;59805;-85
2023/06/01 09:13:37;;;;;;;;;;;;;;;29.82;23.43;100801.82;104793;1306;74093;-85
2023/06/01 09:16:34;;;;;;;;;;;;;;;28.70;24.04;100807.67;104700;1306;68166;-85
2023/06/01 09:19:20;;;;;;;;;;;;;;;27.73;23.97;100799.63;104744;1305;71391;-87
2023/06/01 09:22:07;;;;;;;;;;;;;;;26.83;24.62;100798.98;104694;1306;58964;-87
2023/06/01 09:24:57;;;;;;;;;;;;;;;26.19;25.03;100801.34;105430;1297;59279;-87
2023/06/01 09:27:47;;;;;;;;;;;;;;;25.40;25.24;100805.95;105402;1299;74590;-87
2023/06/01 09:30:40;;;;;;;;;;;;;;;24.94;25.72;100808.17;105276;1297;68582;-87
2023/06/01 09:33:27;;;;;;;;;;;;;;;24.59;25.88;100805.77;105392;1297;71821;-86
2023/06/01 09:39:32;;;;;;;;;;;;;;;23.86;26.50;100802.45;105415;1297;59059;-87
2023/06/01 09:42:30;;;;;;;;;;;;;;;23.53;26.72;100802.42;105413;1297;73932;-87
2023/06/01 09:45:18;;;;;;;;;;;;;;;23.11;27.22;100801.18;105443;1303;66970;-87
2023/06/01 09:48:18;;;;;;;;;;;;;;;22.87;27.43;100800.25;105373;1296;72970;-86
2023/06/01 09:51:05;;;;;;;;;;;;;;;22.69;27.59;100805.94;105340;1297;59565;-86
2023/06/01 09:53:51;;;;;;;;;;;;;;;22.56;28.55;100804.70;105290;1300;59114;-87
2023/06/01 09:56:48;;;;;;;;;;;;;;;22.50;28.80;100808.41;105462;1299;73975;-86
2023/06/01 09:59:52;;;;;;;;;;;;;;;22.48;28.94;100807.29;105369;1296;67866;-86
2023/06/01 10:02:39;;;;;;;;;;;;;;;22.51;29.00;100808.67;105395;1297;71751;-86
2023/06/01 10:05:28;;;;;;;;;;;;;;;22.41;29.14;100810.48;105403;1297;59318;-86
2023/06/01 10:08:15;;;;;;;;;;;;;;;22.28;29.37;100814.36;105482;1297;60208;-86
2023/06/01 10:11:01;;;;;;;;;;;;;;;22.23;29.79;100816.39;105431;1297;74352;-86
2023/06/01 10:13:53;;;;;;;;;;;;;;;22.18;29.76;100814.27;105460;1297;67703;-86
2023/06/01 10:16:40;;;;;;;;;;;;;;;22.10;29.74;100808.79;101441;1297;5156084;-87
2023/06/01 10:19:26;;;;;;;;;;;;;;;21.93;30.21;100807.16;105479;1297;59357;-86
2023/06/01 10:22:12;;;;;;;;;;;;;;;21.81;30.68;100799.11;105592;1295;74176;-86
2023/06/01 10:25:00;;;;;;;;;;;;;;;21.85;30.59;100808.20;105481;1297;69596;-86
2023/06/01 10:27:52;;;;;;;;;;;;;;;21.82;30.90;100805.23;105535;1297;72044;-86
2023/06/01 10:30:38;;;;;;;;;;;;;;;21.70;31.04;100801.88;105592;1297;58979;-86
2023/06/01 10:33:46;;;;;;;;;;;;;;;21.62;31.42;100797.64;105322;1296;59530;-87
2023/06/01 10:36:51;;;;;;;;;;;;;;;21.63;31.55;100805.65;105443;1299;74025;-86
2023/06/01 10:39:37;;;;;;;;;;;;;;;21.54;31.62;100800.52;105504;1297;68211;-86
2023/06/01 10:42:23;;;;;;;;;;;;;;;21.53;32.18;100806.05;105521;1296;71271;-86
2023/06/01 10:45:28;;;;;;;;;;;;;;;21.58;32.32;100805.60;105512;1297;59414;-86
2023/06/01 10:48:14;;;;;;;;;;;;;;;21.63;32.40;100803.33;105454;1298;59272;-86
2023/06/01 10:51:20;;;;;;;;;;;;;;;21.64;32.48;100801.03;105361;1298;74132;-86
2023/06/01 10:54:27;;;;;;;;;;;;;;;21.72;32.64;100799.98;105443;1297;67861;-86
2023/06/01 10:57:21;;;;;;;;;;;;;;;21.74;32.55;100800.02;105258;1299;71140;-86
2023/06/01 11:00:13;;;;;;;;;;;;;;;21.72;32.76;100798.27;105257;1299;59351;-87
2023/06/01 11:03:00;;;;;;;;;;;;;;;21.65;33.05;100794.61;105381;1297;59046;-86
2023/06/01 11:05:47;;;;;;;;;;;;;;;21.64;33.20;100794.19;105348;1297;74586;-87
2023/06/01 11:08:33;;;;;;;;;;;;;;;21.62;33.29;100790.95;105434;1297;68056;-87
2023/06/01 11:11:20;;;;;;;;;;;;;;;21.53;33.56;100785.52;105407;1297;72621;-87
2023/06/01 11:14:08;;;;;;;;;;;;;;;21.51;33.56;100781.23;105446;1297;59103;-86
2023/06/01 11:16:54;;;;;;;;;;;;;;;21.55;33.72;100782.76;105374;1297;59640;-86
2023/06/01 11:19:40;;;;;;;;;;;;;;;21.56;33.75;100783.21;105431;1297;74437;-86
2023/06/01 11:22:28;;;;;;;;;;;;;;;21.53;34.04;100780.10;105319;1298;67517;-86
2023/06/01 11:25:17;;;;;;;;;;;;;;;21.52;34.27;100774.89;105275;1299;72632;-86
2023/06/01 11:28:04;;;;;;;;;;;;;;;21.55;34.38;100771.73;105317;1300;59049;-86
2023/06/01 11:30:51;;;;;;;;;;;;;;;21.58;34.49;100768.40;105363;1297;59867;-86
2023/06/01 11:33:38;;;;;;;;;;;;;;;21.61;34.37;100771.38;105300;1297;75068;-86
2023/06/01 11:36:24;;;;;;;;;;;;;;;21.63;34.54;100764.75;105260;1300;67457;-86
2023/06/01 11:39:20;;;;;;;;;;;;;;;21.63;34.30;100764.73;105341;1297;71078;-86
2023/06/01 11:42:16;;;;;;;;;;;;;;;21.61;34.58;100762.42;105360;1300;58622;-86
2023/06/01 11:45:02;;;;;;;;;;;;;;;21.63;34.98;100760.56;105394;1302;59143;-86
2023/06/01 11:47:48;;;;;;;;;;;;;;;21.64;34.75;100757.70;105248;1300;74447;-86
2023/06/01 11:50:34;;;;;;;;;;;;;;;21.64;35.05;100754.18;105303;1303;67381;-87
2023/06/01 11:53:23;;;;;;;;;;;;;;;21.66;35.12;100751.73;105398;1297;72535;-87
2023/06/01 11:56:09;;;;;;;;;;;;;;;21.69;35.19;100751.41;105257;1297;59237;-86
2023/06/01 11:59:02;;;;;;;;;;;;;;;21.71;35.23;100747.58;105364;1298;59226;-86
2023/06/01 12:01:50;;;;;;;;;;;;;;;21.75;35.30;100744.54;105428;1297;74937;-86
2023/06/01 12:04:36;;;;;;;;;;;;;;;21.76;35.20;100743.09;105473;1297;68310;-86
2023/06/01 12:07:21;;;;;;;;;;;;;;;21.70;35.20;100741.88;105538;1296;72915;-86
2023/06/01 12:10:07;;;;;;;;;;;;;;;21.60;35.41;100745.27;105489;1297;59385;-86
2023/06/01 12:12:53;;;;;;;;;;;;;;;21.48;35.54;100742.84;105483;1297;59775;-87
2023/06/01 12:15:39;;;;;;;;;;;;;;;21.40;35.85;100740.66;105465;1297;73280;-87
2023/06/01 12:18:30;;;;;;;;;;;;;;;21.43;35.85;100736.97;105469;1297;67512;-86
2023/06/01 12:21:17;;;;;;;;;;;;;;;21.49;35.96;100735.96;105475;1300;71330;-86
2023/06/01 12:24:03;;;;;;;;;;;;;;;21.58;36.26;100737.88;105466;1297;59067;-86
2023/06/01 12:26:49;;;;;;;;;;;;;;;21.62;36.28;100733.90;105460;1297;59337;-87
2023/06/01 12:29:41;;;;;;;;;;;;;;;21.65;36.24;100736.22;105492;1297;75109;-87
2023/06/01 12:32:37;;;;;;;;;;;;;;;21.69;36.17;100737.33;105477;1297;68665;-86
2023/06/01 12:35:23;;;;;;;;;;;;;;;21.68;36.26;100732.31;105395;1297;70909;-87
2023/06/01 12:38:12;;;;;;;;;;;;;;;21.66;36.30;100736.13;105385;1297;59443;-87
2023/06/01 12:41:07;;;;;;;;;;;;;;;21.67;36.25;100732.71;105379;1299;60817;-87
2023/06/01 12:43:53;;;;;;;;;;;;;;;21.69;36.30;100729.29;105400;1297;73759;-86
2023/06/01 12:47:00;;;;;;;;;;;;;;;21.71;36.44;100729.16;105261;1298;68159;-87
2023/06/01 12:50:15;;;;;;;;;;;;;;;21.68;36.25;100728.48;105433;1300;72778;-86
2023/06/01 12:53:07;;;;;;;;;;;;;;;21.45;36.50;100724.44;104739;1305;58990;-86
2023/06/01 12:55:53;;;;;;;;;;;;;;;21.40;36.52;100729.98;104840;1305;59548;-86
2023/06/01 12:58:39;;;;;;;;;;;;;;;21.33;36.66;100730.93;104794;1303;73311;-86
2023/06/01 13:01:25;;;;;;;;;;;;;;;21.32;36.74;100731.36;104868;1305;66599;-86
2023/06/01 13:04:11;;;;;;;;;;;;;;;21.26;36.73;100726.27;104847;1306;72664;-86
2023/06/01 13:06:57;;;;;;;;;;;;;;;21.31;36.88;100727.91;104832;1306;59606;-86
2023/06/01 13:09:43;;;;;;;;;;;;;;;21.35;36.85;100730.97;104850;1306;59279;-86
2023/06/01 13:12:29;;;;;;;;;;;;;;;21.34;36.78;100730.86;104801;1303;74750;-86
2023/06/01 13:15:15;;;;;;;;;;;;;;;21.30;36.85;100732.16;104893;1306;69111;-86
2023/06/01 13:18:01;;;;;;;;;;;;;;;21.29;36.82;100727.15;104908;1305;72781;-86
2023/06/01 13:20:47;;;;;;;;;;;;;;;21.23;36.97;100729.42;104844;1304;59067;-86
2023/06/01 13:23:33;;;;;;;;;;;;;;;21.15;37.03;100723.05;104915;1305;59134;-86
2023/06/01 13:26:22;;;;;;;;;;;;;;;21.09;37.07;100719.70;104914;1305;74548;-86
2023/06/01 13:29:09;;;;;;;;;;;;;;;21.09;37.04;100719.69;105084;1297;67804;-86
2023/06/01 13:31:54;;;;;;;;;;;;;;;21.09;37.36;100723.88;105583;1296;71649;-86
2023/06/01 13:34:41;;;;;;;;;;;;;;;21.15;37.25;100722.00;105491;1299;59253;-86
2023/06/01 13:37:26;;;;;;;;;;;;;;;21.16;37.40;100719.11;105477;1297;59922;-86
2023/06/01 13:46:59;;;;;;;;;;;;;;;21.16;37.85;100712.27;105442;1297;71204;-86
2023/06/01 13:49:45;;;;;;;;;;;;;;;21.24;37.90;100711.33;105282;1303;59117;-86
2023/06/01 13:52:32;;;;;;;;;;;;;;;21.26;37.81;100707.70;105560;1297;58849;-86
2023/06/01 13:55:18;;;;;;;;;;;;;;;21.24;37.70;100707.11;105462;1297;74648;-86
2023/06/01 13:58:03;;;;;;;;;;;;;;;21.20;37.81;100715.23;105489;1299;67418;-86
2023/06/01 14:00:50;;;;;;;;;;;;;;;21.17;37.82;100710.62;105525;1297;70482;-86
2023/06/01 14:03:36;;;;;;;;;;;;;;;21.12;37.73;100703.55;105435;1297;59632;-86
2023/06/01 14:06:21;;;;;;;;;;;;;;;21.06;37.86;100708.15;105509;1297;59150;-86
2023/06/01 14:09:07;;;;;;;;;;;;;;;21.07;38.06;100700.52;105396;1297;73389;-86
2023/06/01 14:11:53;;;;;;;;;;;;;;;21.09;38.09;100703.89;105504;1297;66310;-86
2023/06/01 14:15:01;;;;;;;;;;;;;;;21.09;38.07;100702.69;105434;1297;71889;-86
2023/06/01 14:17:47;;;;;;;;;;;;;;;21.17;38.14;100707.31;105422;1297;59419;-86
2023/06/01 14:20:34;;;;;;;;;;;;;;;21.22;38.07;100705.98;105362;1297;59452;-86
2023/06/01 14:23:20;;;;;;;;;;;;;;;21.18;38.06;100702.88;105429;1297;74730;-86
2023/06/01 14:26:06;;;;;;;;;;;;;;;21.17;38.08;100694.35;105445;1297;67852;-86
2023/06/01 14:28:52;;;;;;;;;;;;;;;21.15;38.10;100700.23;105276;1299;72694;-86
2023/06/01 14:31:38;;;;;;;;;;;;;;;21.12;38.20;100696.19;105457;1297;59042;-86
2023/06/01 14:34:24;;;;;;;;;;;;;;;21.16;38.27;100702.45;105436;1297;59318;-86
2023/06/01 14:37:11;;;;;;;;;;;;;;;21.22;38.11;100696.71;105403;1297;73285;-86
2023/06/01 14:39:57;;;;;;;;;;;;;;;21.25;38.22;100702.66;105454;1297;67526;-86
2023/06/01 14:42:43;;;;;;;;;;;;;;;21.27;38.12;100702.90;105387;1297;73096;-86
2023/06/01 14:45:29;;;;;;;;;;;;;;;21.25;37.84;100695.98;105461;1298;59713;-86
2023/06/01 14:48:15;;;;;;;;;;;;;;;21.19;38.13;100698.10;105479;1298;59138;-86
2023/06/01 14:51:01;;;;;;;;;;;;;;;21.17;38.07;100702.07;105443;1297;73228;-86
2023/06/01 14:53:48;;;;;;;;;;;;;;;21.14;38.28;100698.01;105480;1300;66530;-86
2023/06/01 14:56:34;;;;;;;;;;;;;;;21.16;38.30;100701.21;105438;1298;71423;-86
2023/06/01 14:59:20;;;;;;;;;;;;;;;21.19;38.19;100697.59;105398;1297;59354;-86